sensor_id;sensor_type;location;lat;lon;timestamp;P1;durP1;ratioP1;P2;durP2;ratioP2
26157;SDS011;67284;44.782;10.282;2023-04-03T00:03:39;2.50;;;2.28;;
26157;SDS011;67284;44.782;10.282;2023-04-03T00:08:32;5.50;;;2.03;;
26157;SDS011;67284;44.782;10.282;2023-04-03T00:13:24;3.83;;;2.65;;
26157;SDS011;67284;44.782;10.282;2023-04-03T00:18:17;3.38;;;2.20;;
26157;SDS011;67284;44.782;10.282;2023-04-03T00:23:09;2.70;;;2.08;;
26157;SDS011;67284;44.782;10.282;2023-04-03T00:28:01;4.13;;;2.10;;
26157;SDS011;67284;44.782;10.282;2023-04-03T00:32:53;2.58;;;2.20;;
26157;SDS011;67284;44.782;10.282;2023-04-03T00:37:46;3.53;;;2.40;;
26157;SDS011;67284;44.782;10.282;2023-04-03T00:42:39;6.38;;;2.25;;
26157;SDS011;67284;44.782;10.282;2023-04-03T00:47:32;4.90;;;2.35;;
26157;SDS011;67284;44.782;10.282;2023-04-03T00:52:25;2.75;;;1.85;;
26157;SDS011;67284;44.782;10.282;2023-04-03T00:57:21;2.55;;;2.08;;
26157;SDS011;67284;44.782;10.282;2023-04-03T01:02:13;2.70;;;2.35;;
26157;SDS011;67284;44.782;10.282;2023-04-03T01:07:16;2.17;;;1.80;;
26157;SDS011;67284;44.782;10.282;2023-04-03T01:12:15;2.47;;;2.28;;
26157;SDS011;67284;44.782;10.282;2023-04-03T01:17:27;4.90;;;2.58;;
26157;SDS011;67284;44.782;10.282;2023-04-03T01:22:26;3.40;;;2.45;;
26157;SDS011;67284;44.782;10.282;2023-04-03T01:27:26;3.90;;;2.35;;
26157;SDS011;67284;44.782;10.282;2023-04-03T01:32:18;5.38;;;2.88;;
26157;SDS011;67284;44.782;10.282;2023-04-03T01:37:10;3.42;;;2.30;;
26157;SDS011;67284;44.782;10.282;2023-04-03T01:42:03;3.22;;;2.33;;
26157;SDS011;67284;44.782;10.282;2023-04-03T01:47:01;3.10;;;2.45;;
26157;SDS011;67284;44.782;10.282;2023-04-03T01:51:54;2.42;;;2.10;;
26157;SDS011;67284;44.782;10.282;2023-04-03T01:56:46;2.97;;;2.22;;
26157;SDS011;67284;44.782;10.282;2023-04-03T02:01:38;4.22;;;2.58;;
26157;SDS011;67284;44.782;10.282;2023-04-03T02:06:31;2.50;;;2.30;;
26157;SDS011;67284;44.782;10.282;2023-04-03T02:11:23;6.55;;;2.88;;
26157;SDS011;67284;44.782;10.282;2023-04-03T02:16:15;5.85;;;3.05;;
26157;SDS011;67284;44.782;10.282;2023-04-03T02:21:07;3.58;;;2.88;;
26157;SDS011;67284;44.782;10.282;2023-04-03T02:26:06;2.60;;;2.40;;
26157;SDS011;67284;44.782;10.282;2023-04-03T02:30:59;3.03;;;2.70;;
26157;SDS011;67284;44.782;10.282;2023-04-03T02:35:54;2.88;;;2.50;;
26157;SDS011;67284;44.782;10.282;2023-04-03T02:40:47;5.35;;;2.45;;
26157;SDS011;67284;44.782;10.282;2023-04-03T02:45:39;2.55;;;2.35;;
26157;SDS011;67284;44.782;10.282;2023-04-03T02:50:31;3.00;;;2.67;;
26157;SDS011;67284;44.782;10.282;2023-04-03T02:55:23;3.60;;;2.90;;
26157;SDS011;67284;44.782;10.282;2023-04-03T03:00:18;4.43;;;3.05;;
26157;SDS011;67284;44.782;10.282;2023-04-03T03:05:11;4.38;;;2.47;;
26157;SDS011;67284;44.782;10.282;2023-04-03T03:10:03;2.40;;;2.20;;
26157;SDS011;67284;44.782;10.282;2023-04-03T03:14:55;3.40;;;2.40;;
26157;SDS011;67284;44.782;10.282;2023-04-03T03:19:47;4.80;;;3.03;;
26157;SDS011;67284;44.782;10.282;2023-04-03T03:24:39;4.13;;;2.90;;
26157;SDS011;67284;44.782;10.282;2023-04-03T03:29:31;6.78;;;3.17;;
26157;SDS011;67284;44.782;10.282;2023-04-03T03:34:23;3.20;;;2.88;;
26157;SDS011;67284;44.782;10.282;2023-04-03T03:39:15;4.22;;;2.65;;
26157;SDS011;67284;44.782;10.282;2023-04-03T03:44:06;2.85;;;2.60;;
26157;SDS011;67284;44.782;10.282;2023-04-03T03:48:59;4.88;;;2.47;;
26157;SDS011;67284;44.782;10.282;2023-04-03T03:53:51;3.70;;;2.65;;
26157;SDS011;67284;44.782;10.282;2023-04-03T03:58:44;2.90;;;2.50;;
26157;SDS011;67284;44.782;10.282;2023-04-03T04:03:37;8.13;;;2.40;;
26157;SDS011;67284;44.782;10.282;2023-04-03T04:08:31;4.55;;;3.10;;
26157;SDS011;67284;44.782;10.282;2023-04-03T04:13:23;2.80;;;2.60;;
26157;SDS011;67284;44.782;10.282;2023-04-03T04:18:15;6.07;;;2.85;;
26157;SDS011;67284;44.782;10.282;2023-04-03T04:23:10;3.58;;;2.85;;
26157;SDS011;67284;44.782;10.282;2023-04-03T04:28:02;5.53;;;3.17;;
26157;SDS011;67284;44.782;10.282;2023-04-03T04:32:54;4.63;;;3.03;;
26157;SDS011;67284;44.782;10.282;2023-04-03T04:37:47;4.03;;;3.10;;
26157;SDS011;67284;44.782;10.282;2023-04-03T04:42:40;4.75;;;2.85;;
26157;SDS011;67284;44.782;10.282;2023-04-03T04:47:32;3.72;;;3.15;;
26157;SDS011;67284;44.782;10.282;2023-04-03T04:52:24;5.07;;;2.90;;
26157;SDS011;67284;44.782;10.282;2023-04-03T04:57:16;3.25;;;2.92;;
26157;SDS011;67284;44.782;10.282;2023-04-03T05:02:09;4.65;;;2.92;;
26157;SDS011;67284;44.782;10.282;2023-04-03T05:07:03;5.35;;;3.22;;
26157;SDS011;67284;44.782;10.282;2023-04-03T05:11:59;4.90;;;3.28;;
26157;SDS011;67284;44.782;10.282;2023-04-03T05:16:54;4.18;;;3.17;;
26157;SDS011;67284;44.782;10.282;2023-04-03T05:21:50;10.60;;;4.28;;
26157;SDS011;67284;44.782;10.282;2023-04-03T05:26:43;9.75;;;3.22;;
26157;SDS011;67284;44.782;10.282;2023-04-03T05:31:36;5.88;;;3.55;;
26157;SDS011;67284;44.782;10.282;2023-04-03T05:36:31;4.38;;;3.50;;
26157;SDS011;67284;44.782;10.282;2023-04-03T05:41:28;5.45;;;3.85;;
26157;SDS011;67284;44.782;10.282;2023-04-03T05:46:20;5.95;;;3.80;;
26157;SDS011;67284;44.782;10.282;2023-04-03T05:51:22;5.78;;;4.00;;
26157;SDS011;67284;44.782;10.282;2023-04-03T05:56:19;4.18;;;3.45;;
26157;SDS011;67284;44.782;10.282;2023-04-03T06:01:12;5.70;;;3.55;;
26157;SDS011;67284;44.782;10.282;2023-04-03T06:06:04;4.80;;;3.67;;
26157;SDS011;67284;44.782;10.282;2023-04-03T06:10:56;11.02;;;5.20;;
26157;SDS011;67284;44.782;10.282;2023-04-03T06:15:48;3.97;;;3.63;;
26157;SDS011;67284;44.782;10.282;2023-04-03T06:20:40;6.63;;;3.78;;
26157;SDS011;67284;44.782;10.282;2023-04-03T06:25:33;8.40;;;4.43;;
26157;SDS011;67284;44.782;10.282;2023-04-03T06:30:25;7.05;;;4.40;;
26157;SDS011;67284;44.782;10.282;2023-04-03T06:35:17;5.50;;;4.07;;
26157;SDS011;67284;44.782;10.282;2023-04-03T06:40:13;9.52;;;4.65;;
26157;SDS011;67284;44.782;10.282;2023-04-03T06:45:11;5.10;;;4.60;;
26157;SDS011;67284;44.782;10.282;2023-04-03T06:50:03;8.18;;;5.05;;
26157;SDS011;67284;44.782;10.282;2023-04-03T06:54:55;6.47;;;4.70;;
26157;SDS011;67284;44.782;10.282;2023-04-03T06:59:49;6.88;;;4.80;;
26157;SDS011;67284;44.782;10.282;2023-04-03T07:04:41;7.15;;;5.45;;
26157;SDS011;67284;44.782;10.282;2023-04-03T07:09:33;10.40;;;6.20;;
26157;SDS011;67284;44.782;10.282;2023-04-03T07:14:25;12.55;;;5.63;;
26157;SDS011;67284;44.782;10.282;2023-04-03T07:19:17;8.13;;;5.47;;
26157;SDS011;67284;44.782;10.282;2023-04-03T07:24:10;8.82;;;5.95;;
26157;SDS011;67284;44.782;10.282;2023-04-03T07:29:07;9.40;;;7.13;;
26157;SDS011;67284;44.782;10.282;2023-04-03T07:33:58;14.48;;;7.32;;
26157;SDS011;67284;44.782;10.282;2023-04-03T07:38:50;10.45;;;7.45;;
26157;SDS011;67284;44.782;10.282;2023-04-03T07:43:42;12.13;;;8.25;;
26157;SDS011;67284;44.782;10.282;2023-04-03T07:48:35;13.15;;;10.13;;
26157;SDS011;67284;44.782;10.282;2023-04-03T07:53:27;11.55;;;8.63;;
26157;SDS011;67284;44.782;10.282;2023-04-03T07:58:19;21.75;;;11.73;;
26157;SDS011;67284;44.782;10.282;2023-04-03T08:03:11;14.40;;;10.95;;
26157;SDS011;67284;44.782;10.282;2023-04-03T08:08:04;18.88;;;12.10;;
26157;SDS011;67284;44.782;10.282;2023-04-03T08:12:57;16.48;;;12.35;;
26157;SDS011;67284;44.782;10.282;2023-04-03T08:17:50;14.20;;;11.40;;
26157;SDS011;67284;44.782;10.282;2023-04-03T08:22:42;11.15;;;9.38;;
26157;SDS011;67284;44.782;10.282;2023-04-03T08:27:34;13.77;;;10.52;;
26157;SDS011;67284;44.782;10.282;2023-04-03T08:32:26;14.75;;;10.55;;
26157;SDS011;67284;44.782;10.282;2023-04-03T08:37:18;14.25;;;10.05;;
26157;SDS011;67284;44.782;10.282;2023-04-03T08:42:14;14.85;;;12.07;;
26157;SDS011;67284;44.782;10.282;2023-04-03T08:52:22;15.60;;;10.57;;
26157;SDS011;67284;44.782;10.282;2023-04-03T08:57:29;13.60;;;10.87;;
26157;SDS011;67284;44.782;10.282;2023-04-03T09:02:25;16.40;;;12.50;;
26157;SDS011;67284;44.782;10.282;2023-04-03T09:07:39;17.73;;;12.15;;
26157;SDS011;67284;44.782;10.282;2023-04-03T09:12:38;23.05;;;12.50;;
26157;SDS011;67284;44.782;10.282;2023-04-03T09:18:35;18.00;;;11.27;;
26157;SDS011;67284;44.782;10.282;2023-04-03T09:23:19;17.15;;;11.20;;
26157;SDS011;67284;44.782;10.282;2023-04-03T09:28:16;18.70;;;12.38;;
26157;SDS011;67284;44.782;10.282;2023-04-03T09:33:08;13.55;;;10.50;;
26157;SDS011;67284;44.782;10.282;2023-04-03T09:38:01;15.50;;;10.55;;
26157;SDS011;67284;44.782;10.282;2023-04-03T09:42:58;13.70;;;10.38;;
26157;SDS011;67284;44.782;10.282;2023-04-03T09:48:26;12.38;;;9.38;;
26157;SDS011;67284;44.782;10.282;2023-04-03T09:53:25;15.10;;;8.23;;
26157;SDS011;67284;44.782;10.282;2023-04-03T09:58:24;10.80;;;6.55;;
26157;SDS011;67284;44.782;10.282;2023-04-03T10:03:39;6.28;;;4.18;;
26157;SDS011;67284;44.782;10.282;2023-04-03T10:08:38;7.45;;;5.90;;
26157;SDS011;67284;44.782;10.282;2023-04-03T10:13:32;9.40;;;6.00;;
26157;SDS011;67284;44.782;10.282;2023-04-03T10:18:45;12.60;;;6.45;;
26157;SDS011;67284;44.782;10.282;2023-04-03T10:23:45;7.50;;;5.25;;
26157;SDS011;67284;44.782;10.282;2023-04-03T10:44:20;6.82;;;4.60;;
26157;SDS011;67284;44.782;10.282;2023-04-03T10:49:34;7.45;;;4.43;;
26157;SDS011;67284;44.782;10.282;2023-04-03T11:00:02;6.93;;;5.32;;
26157;SDS011;67284;44.782;10.282;2023-04-03T11:05:02;9.20;;;6.43;;
26157;SDS011;67284;44.782;10.282;2023-04-03T11:10:02;10.20;;;6.13;;
26157;SDS011;67284;44.782;10.282;2023-04-03T11:14:57;6.45;;;5.35;;
26157;SDS011;67284;44.782;10.282;2023-04-03T11:30:02;9.35;;;6.10;;
26157;SDS011;67284;44.782;10.282;2023-04-03T11:35:01;5.72;;;4.15;;
26157;SDS011;67284;44.782;10.282;2023-04-03T11:39:57;5.00;;;3.40;;
26157;SDS011;67284;44.782;10.282;2023-04-03T11:45:14;3.55;;;3.17;;
26157;SDS011;67284;44.782;10.282;2023-04-03T11:50:08;3.38;;;2.47;;
26157;SDS011;67284;44.782;10.282;2023-04-03T11:55:41;2.80;;;2.60;;
26157;SDS011;67284;44.782;10.282;2023-04-03T12:05:38;3.45;;;2.13;;
26157;SDS011;67284;44.782;10.282;2023-04-03T12:10:31;3.60;;;2.17;;
26157;SDS011;67284;44.782;10.282;2023-04-03T12:15:45;3.78;;;1.98;;
26157;SDS011;67284;44.782;10.282;2023-04-03T12:20:46;3.53;;;1.88;;
26157;SDS011;67284;44.782;10.282;2023-04-03T12:25:48;4.20;;;1.42;;
26157;SDS011;67284;44.782;10.282;2023-04-03T12:30:41;1.52;;;1.30;;
26157;SDS011;67284;44.782;10.282;2023-04-03T12:46:33;2.15;;;1.67;;
26157;SDS011;67284;44.782;10.282;2023-04-03T12:56:35;3.30;;;1.70;;
26157;SDS011;67284;44.782;10.282;2023-04-03T13:01:27;7.28;;;2.15;;
26157;SDS011;67284;44.782;10.282;2023-04-03T13:06:30;4.15;;;2.05;;
26157;SDS011;67284;44.782;10.282;2023-04-03T13:11:27;2.05;;;1.50;;
26157;SDS011;67284;44.782;10.282;2023-04-03T13:16:24;4.55;;;1.55;;
26157;SDS011;67284;44.782;10.282;2023-04-03T13:21:28;2.78;;;1.60;;
26157;SDS011;67284;44.782;10.282;2023-04-03T13:26:26;3.45;;;1.98;;
26157;SDS011;67284;44.782;10.282;2023-04-03T13:31:25;5.78;;;2.60;;
26157;SDS011;67284;44.782;10.282;2023-04-03T13:36:27;7.70;;;3.10;;
26157;SDS011;67284;44.782;10.282;2023-04-03T13:41:24;2.40;;;2.08;;
26157;SDS011;67284;44.782;10.282;2023-04-03T13:56:09;5.00;;;4.13;;
26157;SDS011;67284;44.782;10.282;2023-04-03T14:01:19;5.38;;;4.05;;
26157;SDS011;67284;44.782;10.282;2023-04-03T14:06:14;4.97;;;3.80;;
26157;SDS011;67284;44.782;10.282;2023-04-03T14:11:41;6.57;;;3.60;;
26157;SDS011;67284;44.782;10.282;2023-04-03T14:16:27;4.95;;;3.15;;
26157;SDS011;67284;44.782;10.282;2023-04-03T14:21:22;4.82;;;2.80;;
26157;SDS011;67284;44.782;10.282;2023-04-03T14:26:19;4.90;;;2.50;;
26157;SDS011;67284;44.782;10.282;2023-04-03T14:31:13;4.85;;;2.60;;
26157;SDS011;67284;44.782;10.282;2023-04-03T14:36:13;4.95;;;2.40;;
26157;SDS011;67284;44.782;10.282;2023-04-03T14:41:07;4.65;;;2.70;;
26157;SDS011;67284;44.782;10.282;2023-04-03T14:46:17;5.28;;;3.30;;
26157;SDS011;67284;44.782;10.282;2023-04-03T14:51:11;3.67;;;2.30;;
26157;SDS011;67284;44.782;10.282;2023-04-03T14:56:26;2.58;;;2.03;;
26157;SDS011;67284;44.782;10.282;2023-04-03T15:01:18;4.60;;;2.33;;
26157;SDS011;67284;44.782;10.282;2023-04-03T15:06:11;4.03;;;2.45;;
26157;SDS011;67284;44.782;10.282;2023-04-03T15:11:04;4.55;;;2.03;;
26157;SDS011;67284;44.782;10.282;2023-04-03T15:15:56;3.53;;;1.88;;
26157;SDS011;67284;44.782;10.282;2023-04-03T15:20:49;4.22;;;1.63;;
26157;SDS011;67284;44.782;10.282;2023-04-03T15:25:41;5.38;;;1.63;;
26157;SDS011;67284;44.782;10.282;2023-04-03T15:30:35;4.32;;;1.75;;
26157;SDS011;67284;44.782;10.282;2023-04-03T15:35:30;3.13;;;1.40;;
26157;SDS011;67284;44.782;10.282;2023-04-03T15:40:22;3.38;;;1.52;;
26157;SDS011;67284;44.782;10.282;2023-04-03T15:45:14;5.72;;;1.40;;
26157;SDS011;67284;44.782;10.282;2023-04-03T15:50:06;3.38;;;1.67;;
26157;SDS011;67284;44.782;10.282;2023-04-03T15:54:59;2.15;;;1.23;;
26157;SDS011;67284;44.782;10.282;2023-04-03T15:59:51;2.35;;;1.13;;
26157;SDS011;67284;44.782;10.282;2023-04-03T16:04:43;5.13;;;1.10;;
26157;SDS011;67284;44.782;10.282;2023-04-03T16:09:35;2.30;;;0.98;;
26157;SDS011;67284;44.782;10.282;2023-04-03T16:14:30;4.63;;;1.50;;
26157;SDS011;67284;44.782;10.282;2023-04-03T16:19:22;1.90;;;1.20;;
26157;SDS011;67284;44.782;10.282;2023-04-03T16:24:16;2.13;;;1.40;;
26157;SDS011;67284;44.782;10.282;2023-04-03T16:29:09;2.17;;;1.77;;
26157;SDS011;67284;44.782;10.282;2023-04-03T16:34:01;2.78;;;1.05;;
26157;SDS011;67284;44.782;10.282;2023-04-03T16:38:53;2.63;;;1.30;;
26157;SDS011;67284;44.782;10.282;2023-04-03T16:43:45;3.25;;;1.50;;
26157;SDS011;67284;44.782;10.282;2023-04-03T16:48:37;4.43;;;1.17;;
26157;SDS011;67284;44.782;10.282;2023-04-03T16:53:29;7.53;;;1.25;;
26157;SDS011;67284;44.782;10.282;2023-04-03T16:58:21;2.25;;;1.45;;
26157;SDS011;67284;44.782;10.282;2023-04-03T17:03:14;7.18;;;1.75;;
26157;SDS011;67284;44.782;10.282;2023-04-03T17:08:06;6.05;;;1.58;;
26157;SDS011;67284;44.782;10.282;2023-04-03T17:12:58;1.30;;;1.20;;
26157;SDS011;67284;44.782;10.282;2023-04-03T17:17:50;2.72;;;1.50;;
26157;SDS011;67284;44.782;10.282;2023-04-03T17:22:43;2.53;;;1.10;;
26157;SDS011;67284;44.782;10.282;2023-04-03T17:27:36;4.82;;;2.17;;
26157;SDS011;67284;44.782;10.282;2023-04-03T17:32:28;4.93;;;2.20;;
26157;SDS011;67284;44.782;10.282;2023-04-03T17:37:20;3.40;;;2.58;;
26157;SDS011;67284;44.782;10.282;2023-04-03T17:42:12;4.13;;;2.00;;
26157;SDS011;67284;44.782;10.282;2023-04-03T17:47:04;7.03;;;1.83;;
26157;SDS011;67284;44.782;10.282;2023-04-03T17:51:56;4.28;;;2.00;;
26157;SDS011;67284;44.782;10.282;2023-04-03T17:56:48;2.83;;;1.67;;
26157;SDS011;67284;44.782;10.282;2023-04-03T18:01:41;2.25;;;1.63;;
26157;SDS011;67284;44.782;10.282;2023-04-03T18:06:39;3.50;;;1.83;;
26157;SDS011;67284;44.782;10.282;2023-04-03T18:11:34;3.60;;;1.75;;
26157;SDS011;67284;44.782;10.282;2023-04-03T18:16:26;8.02;;;1.85;;
26157;SDS011;67284;44.782;10.282;2023-04-03T18:21:19;3.95;;;1.75;;
26157;SDS011;67284;44.782;10.282;2023-04-03T18:26:11;4.10;;;1.83;;
26157;SDS011;67284;44.782;10.282;2023-04-03T18:31:11;3.47;;;1.85;;
26157;SDS011;67284;44.782;10.282;2023-04-03T18:36:06;2.50;;;1.85;;
26157;SDS011;67284;44.782;10.282;2023-04-03T18:40:58;3.50;;;1.90;;
26157;SDS011;67284;44.782;10.282;2023-04-03T18:45:52;3.10;;;1.80;;
26157;SDS011;67284;44.782;10.282;2023-04-03T18:50:44;4.32;;;2.20;;
26157;SDS011;67284;44.782;10.282;2023-04-03T18:55:36;4.28;;;1.83;;
26157;SDS011;67284;44.782;10.282;2023-04-03T19:00:28;3.85;;;1.70;;
26157;SDS011;67284;44.782;10.282;2023-04-03T19:05:20;4.13;;;1.58;;
26157;SDS011;67284;44.782;10.282;2023-04-03T19:10:13;3.58;;;2.08;;
26157;SDS011;67284;44.782;10.282;2023-04-03T19:15:07;3.08;;;1.67;;
26157;SDS011;67284;44.782;10.282;2023-04-03T19:20:00;3.72;;;2.50;;
26157;SDS011;67284;44.782;10.282;2023-04-03T19:24:51;15.60;;;9.73;;
26157;SDS011;67284;44.782;10.282;2023-04-03T19:29:43;9.73;;;8.23;;
26157;SDS011;67284;44.782;10.282;2023-04-03T19:34:35;10.00;;;7.18;;
26157;SDS011;67284;44.782;10.282;2023-04-03T19:39:27;5.82;;;3.65;;
26157;SDS011;67284;44.782;10.282;2023-04-03T19:44:21;4.40;;;3.20;;
26157;SDS011;67284;44.782;10.282;2023-04-03T19:49:13;4.80;;;3.08;;
26157;SDS011;67284;44.782;10.282;2023-04-03T19:54:05;4.95;;;3.67;;
26157;SDS011;67284;44.782;10.282;2023-04-03T19:58:57;3.92;;;2.85;;
26157;SDS011;67284;44.782;10.282;2023-04-03T20:03:49;7.30;;;3.53;;
26157;SDS011;67284;44.782;10.282;2023-04-03T20:08:41;5.03;;;3.38;;
26157;SDS011;67284;44.782;10.282;2023-04-03T20:13:34;4.45;;;2.65;;
26157;SDS011;67284;44.782;10.282;2023-04-03T20:18:25;3.17;;;2.58;;
26157;SDS011;67284;44.782;10.282;2023-04-03T20:23:19;3.40;;;2.70;;
26157;SDS011;67284;44.782;10.282;2023-04-03T20:28:11;3.63;;;2.85;;
26157;SDS011;67284;44.782;10.282;2023-04-03T20:33:06;3.88;;;3.08;;
26157;SDS011;67284;44.782;10.282;2023-04-03T20:37:58;4.38;;;3.15;;
26157;SDS011;67284;44.782;10.282;2023-04-03T20:42:50;4.05;;;3.08;;
26157;SDS011;67284;44.782;10.282;2023-04-03T20:47:42;4.72;;;2.67;;
26157;SDS011;67284;44.782;10.282;2023-04-03T20:52:35;6.32;;;3.05;;
26157;SDS011;67284;44.782;10.282;2023-04-03T20:57:27;5.85;;;3.03;;
26157;SDS011;67284;44.782;10.282;2023-04-03T21:02:19;5.65;;;3.00;;
26157;SDS011;67284;44.782;10.282;2023-04-03T21:23:04;3.75;;;2.83;;
26157;SDS011;67284;44.782;10.282;2023-04-03T21:27:57;8.18;;;3.10;;
26157;SDS011;67284;44.782;10.282;2023-04-03T21:32:49;6.00;;;2.97;;
26157;SDS011;67284;44.782;10.282;2023-04-03T21:37:41;4.70;;;2.90;;
26157;SDS011;67284;44.782;10.282;2023-04-03T21:42:33;3.60;;;2.72;;
26157;SDS011;67284;44.782;10.282;2023-04-03T21:47:25;6.03;;;3.10;;
26157;SDS011;67284;44.782;10.282;2023-04-03T21:52:17;4.72;;;3.38;;
26157;SDS011;67284;44.782;10.282;2023-04-03T21:57:09;10.77;;;3.83;;
26157;SDS011;67284;44.782;10.282;2023-04-03T22:02:02;7.05;;;4.22;;
26157;SDS011;67284;44.782;10.282;2023-04-03T22:06:54;6.43;;;3.15;;
26157;SDS011;67284;44.782;10.282;2023-04-03T22:11:50;9.15;;;3.83;;
26157;SDS011;67284;44.782;10.282;2023-04-03T22:16:42;7.18;;;3.53;;
26157;SDS011;67284;44.782;10.282;2023-04-03T22:21:37;7.38;;;3.10;;
26157;SDS011;67284;44.782;10.282;2023-04-03T22:26:28;7.75;;;3.90;;
26157;SDS011;67284;44.782;10.282;2023-04-03T22:31:20;5.18;;;3.00;;
26157;SDS011;67284;44.782;10.282;2023-04-03T22:36:13;7.15;;;3.28;;
26157;SDS011;67284;44.782;10.282;2023-04-03T22:41:05;6.70;;;3.47;;
26157;SDS011;67284;44.782;10.282;2023-04-03T22:45:58;4.10;;;3.10;;
26157;SDS011;67284;44.782;10.282;2023-04-03T22:50:51;5.13;;;3.45;;
26157;SDS011;67284;44.782;10.282;2023-04-03T22:55:52;7.75;;;3.63;;
26157;SDS011;67284;44.782;10.282;2023-04-03T23:00:44;4.75;;;3.67;;
26157;SDS011;67284;44.782;10.282;2023-04-03T23:05:37;7.90;;;4.10;;
26157;SDS011;67284;44.782;10.282;2023-04-03T23:10:29;5.25;;;3.47;;
26157;SDS011;67284;44.782;10.282;2023-04-03T23:15:21;6.97;;;3.60;;
26157;SDS011;67284;44.782;10.282;2023-04-03T23:20:13;7.75;;;4.10;;
26157;SDS011;67284;44.782;10.282;2023-04-03T23:25:06;6.75;;;3.67;;
26157;SDS011;67284;44.782;10.282;2023-04-03T23:29:57;8.80;;;4.95;;
26157;SDS011;67284;44.782;10.282;2023-04-03T23:34:49;7.00;;;4.20;;
26157;SDS011;67284;44.782;10.282;2023-04-03T23:39:41;8.48;;;3.97;;
26157;SDS011;67284;44.782;10.282;2023-04-03T23:44:33;5.93;;;4.20;;
26157;SDS011;67284;44.782;10.282;2023-04-03T23:49:25;6.80;;;4.05;;
26157;SDS011;67284;44.782;10.282;2023-04-03T23:54:17;5.95;;;3.88;;
26157;SDS011;67284;44.782;10.282;2023-04-03T23:59:09;5.72;;;4.05;;
